sensor_id;sensor_type;location;lat;lon;timestamp;P1;durP1;ratioP1;P2;durP2;ratioP2
11447;SDS011;43755;49.736;8.734;2023-04-24T00:01:56;1.23;;;1.23;;
11447;SDS011;43755;49.736;8.734;2023-04-24T00:03:58;4.72;;;1.52;;
11447;SDS011;43755;49.736;8.734;2023-04-24T00:05:59;3.20;;;1.25;;
11447;SDS011;43755;49.736;8.734;2023-04-24T00:08:02;1.30;;;1.30;;
11447;SDS011;43755;49.736;8.734;2023-04-24T00:10:05;1.77;;;1.20;;
11447;SDS011;43755;49.736;8.734;2023-04-24T00:12:07;1.60;;;1.25;;
11447;SDS011;43755;49.736;8.734;2023-04-24T00:14:09;1.83;;;1.40;;
11447;SDS011;43755;49.736;8.734;2023-04-24T00:16:11;2.00;;;1.20;;
11447;SDS011;43755;49.736;8.734;2023-04-24T00:18:12;2.53;;;1.15;;
11447;SDS011;43755;49.736;8.734;2023-04-24T00:20:14;1.05;;;1.02;;
11447;SDS011;43755;49.736;8.734;2023-04-24T00:22:15;1.42;;;1.08;;
11447;SDS011;43755;49.736;8.734;2023-04-24T00:24:17;3.00;;;1.02;;
11447;SDS011;43755;49.736;8.734;2023-04-24T00:26:20;2.08;;;1.13;;
11447;SDS011;43755;49.736;8.734;2023-04-24T00:28:21;1.33;;;1.20;;
11447;SDS011;43755;49.736;8.734;2023-04-24T00:30:23;3.35;;;1.25;;
11447;SDS011;43755;49.736;8.734;2023-04-24T00:32:24;1.33;;;1.20;;
11447;SDS011;43755;49.736;8.734;2023-04-24T00:34:26;0.82;;;0.82;;
11447;SDS011;43755;49.736;8.734;2023-04-24T00:36:27;3.20;;;1.23;;
11447;SDS011;43755;49.736;8.734;2023-04-24T00:38:28;1.83;;;1.10;;
11447;SDS011;43755;49.736;8.734;2023-04-24T00:40:30;1.27;;;0.88;;
11447;SDS011;43755;49.736;8.734;2023-04-24T00:42:33;1.85;;;1.30;;
11447;SDS011;43755;49.736;8.734;2023-04-24T00:44:35;1.38;;;1.00;;
11447;SDS011;43755;49.736;8.734;2023-04-24T00:46:36;2.40;;;1.00;;
11447;SDS011;43755;49.736;8.734;2023-04-24T00:48:38;1.35;;;1.25;;
11447;SDS011;43755;49.736;8.734;2023-04-24T00:50:40;2.65;;;1.33;;
11447;SDS011;43755;49.736;8.734;2023-04-24T00:52:43;2.35;;;1.40;;
11447;SDS011;43755;49.736;8.734;2023-04-24T00:54:44;5.00;;;1.30;;
11447;SDS011;43755;49.736;8.734;2023-04-24T00:56:46;2.80;;;1.20;;
11447;SDS011;43755;49.736;8.734;2023-04-24T00:58:49;1.83;;;1.38;;
11447;SDS011;43755;49.736;8.734;2023-04-24T01:00:50;2.42;;;1.10;;
11447;SDS011;43755;49.736;8.734;2023-04-24T01:02:53;1.67;;;1.17;;
11447;SDS011;43755;49.736;8.734;2023-04-24T01:04:56;3.55;;;1.13;;
11447;SDS011;43755;49.736;8.734;2023-04-24T01:06:57;1.40;;;1.10;;
11447;SDS011;43755;49.736;8.734;2023-04-24T01:08:59;2.85;;;1.02;;
11447;SDS011;43755;49.736;8.734;2023-04-24T01:11:01;2.95;;;1.10;;
11447;SDS011;43755;49.736;8.734;2023-04-24T01:13:04;2.78;;;1.23;;
11447;SDS011;43755;49.736;8.734;2023-04-24T01:15:08;1.67;;;1.30;;
11447;SDS011;43755;49.736;8.734;2023-04-24T01:17:10;2.33;;;1.10;;
11447;SDS011;43755;49.736;8.734;2023-04-24T01:19:12;3.50;;;1.20;;
11447;SDS011;43755;49.736;8.734;2023-04-24T01:21:18;1.83;;;1.05;;
11447;SDS011;43755;49.736;8.734;2023-04-24T01:23:23;1.70;;;0.80;;
11447;SDS011;43755;49.736;8.734;2023-04-24T01:25:24;1.83;;;1.17;;
11447;SDS011;43755;49.736;8.734;2023-04-24T01:27:27;1.92;;;1.20;;
11447;SDS011;43755;49.736;8.734;2023-04-24T01:29:29;1.73;;;1.10;;
11447;SDS011;43755;49.736;8.734;2023-04-24T01:31:30;3.22;;;1.45;;
11447;SDS011;43755;49.736;8.734;2023-04-24T01:33:34;2.03;;;1.20;;
11447;SDS011;43755;49.736;8.734;2023-04-24T01:35:35;3.58;;;1.50;;
11447;SDS011;43755;49.736;8.734;2023-04-24T01:37:37;2.83;;;1.13;;
11447;SDS011;43755;49.736;8.734;2023-04-24T01:39:40;2.60;;;1.45;;
11447;SDS011;43755;49.736;8.734;2023-04-24T01:41:42;3.42;;;1.25;;
11447;SDS011;43755;49.736;8.734;2023-04-24T01:43:43;1.73;;;0.95;;
11447;SDS011;43755;49.736;8.734;2023-04-24T01:45:45;1.73;;;1.25;;
11447;SDS011;43755;49.736;8.734;2023-04-24T01:47:46;1.52;;;1.20;;
11447;SDS011;43755;49.736;8.734;2023-04-24T01:49:49;2.05;;;1.40;;
11447;SDS011;43755;49.736;8.734;2023-04-24T01:51:51;2.85;;;1.30;;
11447;SDS011;43755;49.736;8.734;2023-04-24T01:53:52;1.85;;;1.20;;
11447;SDS011;43755;49.736;8.734;2023-04-24T01:55:55;2.40;;;1.20;;
11447;SDS011;43755;49.736;8.734;2023-04-24T01:57:57;1.80;;;1.25;;
11447;SDS011;43755;49.736;8.734;2023-04-24T02:00:00;3.90;;;1.20;;
11447;SDS011;43755;49.736;8.734;2023-04-24T02:02:04;1.63;;;1.10;;
11447;SDS011;43755;49.736;8.734;2023-04-24T02:04:06;1.52;;;1.17;;
11447;SDS011;43755;49.736;8.734;2023-04-24T02:06:08;1.05;;;1.00;;
11447;SDS011;43755;49.736;8.734;2023-04-24T02:08:10;1.73;;;1.23;;
11447;SDS011;43755;49.736;8.734;2023-04-24T02:10:11;2.55;;;1.25;;
11447;SDS011;43755;49.736;8.734;2023-04-24T02:12:14;1.20;;;1.10;;
11447;SDS011;43755;49.736;8.734;2023-04-24T02:14:17;1.77;;;1.17;;
11447;SDS011;43755;49.736;8.734;2023-04-24T02:16:18;1.40;;;1.30;;
11447;SDS011;43755;49.736;8.734;2023-04-24T02:18:20;1.80;;;1.27;;
11447;SDS011;43755;49.736;8.734;2023-04-24T02:20:22;2.17;;;1.15;;
11447;SDS011;43755;49.736;8.734;2023-04-24T02:22:24;1.65;;;1.30;;
11447;SDS011;43755;49.736;8.734;2023-04-24T02:24:25;1.13;;;1.08;;
11447;SDS011;43755;49.736;8.734;2023-04-24T02:26:27;2.40;;;1.13;;
11447;SDS011;43755;49.736;8.734;2023-04-24T02:28:30;1.63;;;1.00;;
11447;SDS011;43755;49.736;8.734;2023-04-24T02:30:31;2.15;;;1.20;;
11447;SDS011;43755;49.736;8.734;2023-04-24T02:32:32;1.90;;;1.38;;
11447;SDS011;43755;49.736;8.734;2023-04-24T02:34:34;2.35;;;1.20;;
11447;SDS011;43755;49.736;8.734;2023-04-24T02:36:36;2.20;;;1.30;;
11447;SDS011;43755;49.736;8.734;2023-04-24T02:38:37;3.33;;;1.30;;
11447;SDS011;43755;49.736;8.734;2023-04-24T02:40:38;3.22;;;1.20;;
11447;SDS011;43755;49.736;8.734;2023-04-24T02:42:40;2.70;;;1.50;;
11447;SDS011;43755;49.736;8.734;2023-04-24T02:44:42;2.10;;;1.40;;
11447;SDS011;43755;49.736;8.734;2023-04-24T02:46:44;1.50;;;1.15;;
11447;SDS011;43755;49.736;8.734;2023-04-24T02:48:45;5.45;;;1.75;;
11447;SDS011;43755;49.736;8.734;2023-04-24T02:50:47;3.75;;;1.60;;
11447;SDS011;43755;49.736;8.734;2023-04-24T02:52:48;2.75;;;1.63;;
11447;SDS011;43755;49.736;8.734;2023-04-24T02:54:49;3.50;;;1.50;;
11447;SDS011;43755;49.736;8.734;2023-04-24T02:56:51;2.42;;;1.70;;
11447;SDS011;43755;49.736;8.734;2023-04-24T02:58:52;1.80;;;1.70;;
11447;SDS011;43755;49.736;8.734;2023-04-24T03:00:55;2.35;;;2.15;;
11447;SDS011;43755;49.736;8.734;2023-04-24T03:02:56;5.15;;;2.30;;
11447;SDS011;43755;49.736;8.734;2023-04-24T03:04:58;3.65;;;2.53;;
11447;SDS011;43755;49.736;8.734;2023-04-24T03:06:59;2.58;;;2.28;;
11447;SDS011;43755;49.736;8.734;2023-04-24T03:09:01;3.53;;;2.40;;
11447;SDS011;43755;49.736;8.734;2023-04-24T03:11:03;5.13;;;2.67;;
11447;SDS011;43755;49.736;8.734;2023-04-24T03:13:04;5.20;;;3.28;;
11447;SDS011;43755;49.736;8.734;2023-04-24T03:15:06;4.07;;;3.22;;
11447;SDS011;43755;49.736;8.734;2023-04-24T03:17:10;4.57;;;3.60;;
11447;SDS011;43755;49.736;8.734;2023-04-24T03:19:11;5.75;;;3.70;;
11447;SDS011;43755;49.736;8.734;2023-04-24T03:21:13;4.88;;;3.10;;
11447;SDS011;43755;49.736;8.734;2023-04-24T03:23:14;4.18;;;3.10;;
11447;SDS011;43755;49.736;8.734;2023-04-24T03:25:16;4.05;;;3.70;;
11447;SDS011;43755;49.736;8.734;2023-04-24T03:27:17;4.25;;;3.15;;
11447;SDS011;43755;49.736;8.734;2023-04-24T03:29:19;3.25;;;2.97;;
11447;SDS011;43755;49.736;8.734;2023-04-24T03:31:20;5.28;;;3.25;;
11447;SDS011;43755;49.736;8.734;2023-04-24T03:33:23;3.70;;;3.03;;
11447;SDS011;43755;49.736;8.734;2023-04-24T03:35:24;3.55;;;3.17;;
11447;SDS011;43755;49.736;8.734;2023-04-24T03:37:26;7.28;;;3.50;;
11447;SDS011;43755;49.736;8.734;2023-04-24T03:39:27;3.10;;;2.90;;
11447;SDS011;43755;49.736;8.734;2023-04-24T03:41:28;3.33;;;3.05;;
11447;SDS011;43755;49.736;8.734;2023-04-24T03:43:31;3.33;;;3.03;;
11447;SDS011;43755;49.736;8.734;2023-04-24T03:45:33;3.30;;;3.10;;
11447;SDS011;43755;49.736;8.734;2023-04-24T03:47:34;3.50;;;2.88;;
11447;SDS011;43755;49.736;8.734;2023-04-24T03:49:37;2.70;;;2.50;;
11447;SDS011;43755;49.736;8.734;2023-04-24T03:51:39;2.85;;;2.60;;
11447;SDS011;43755;49.736;8.734;2023-04-24T03:53:40;3.55;;;2.90;;
11447;SDS011;43755;49.736;8.734;2023-04-24T03:55:42;3.40;;;3.10;;
11447;SDS011;43755;49.736;8.734;2023-04-24T03:57:43;2.90;;;2.70;;
11447;SDS011;43755;49.736;8.734;2023-04-24T03:59:44;2.72;;;2.53;;
11447;SDS011;43755;49.736;8.734;2023-04-24T04:01:46;2.85;;;2.65;;
11447;SDS011;43755;49.736;8.734;2023-04-24T04:03:47;3.05;;;2.85;;
11447;SDS011;43755;49.736;8.734;2023-04-24T04:05:50;3.53;;;2.58;;
11447;SDS011;43755;49.736;8.734;2023-04-24T04:07:52;3.10;;;2.90;;
11447;SDS011;43755;49.736;8.734;2023-04-24T04:09:53;3.80;;;2.80;;
11447;SDS011;43755;49.736;8.734;2023-04-24T04:11:54;3.97;;;3.00;;
11447;SDS011;43755;49.736;8.734;2023-04-24T04:13:56;3.17;;;2.88;;
11447;SDS011;43755;49.736;8.734;2023-04-24T04:15:57;3.38;;;3.08;;
11447;SDS011;43755;49.736;8.734;2023-04-24T04:17:59;3.17;;;2.88;;
11447;SDS011;43755;49.736;8.734;2023-04-24T04:20:00;3.05;;;2.85;;
11447;SDS011;43755;49.736;8.734;2023-04-24T04:22:06;3.30;;;3.10;;
11447;SDS011;43755;49.736;8.734;2023-04-24T04:24:08;3.20;;;2.90;;
11447;SDS011;43755;49.736;8.734;2023-04-24T04:26:10;4.65;;;2.95;;
11447;SDS011;43755;49.736;8.734;2023-04-24T04:28:12;3.47;;;3.17;;
11447;SDS011;43755;49.736;8.734;2023-04-24T04:30:14;3.50;;;3.20;;
11447;SDS011;43755;49.736;8.734;2023-04-24T04:32:15;3.55;;;3.25;;
11447;SDS011;43755;49.736;8.734;2023-04-24T04:34:17;4.65;;;3.78;;
11447;SDS011;43755;49.736;8.734;2023-04-24T04:36:19;4.93;;;3.17;;
11447;SDS011;43755;49.736;8.734;2023-04-24T04:38:23;3.92;;;3.50;;
11447;SDS011;43755;49.736;8.734;2023-04-24T04:40:26;3.92;;;3.53;;
11447;SDS011;43755;49.736;8.734;2023-04-24T04:42:28;4.43;;;3.70;;
11447;SDS011;43755;49.736;8.734;2023-04-24T04:44:30;3.90;;;3.60;;
11447;SDS011;43755;49.736;8.734;2023-04-24T04:46:32;4.00;;;3.60;;
11447;SDS011;43755;49.736;8.734;2023-04-24T04:48:34;4.18;;;3.83;;
11447;SDS011;43755;49.736;8.734;2023-04-24T04:50:35;7.22;;;4.43;;
11447;SDS011;43755;49.736;8.734;2023-04-24T04:52:36;4.10;;;3.80;;
11447;SDS011;43755;49.736;8.734;2023-04-24T04:54:39;4.25;;;3.95;;
11447;SDS011;43755;49.736;8.734;2023-04-24T04:56:41;4.47;;;3.65;;
11447;SDS011;43755;49.736;8.734;2023-04-24T04:58:42;4.30;;;3.90;;
11447;SDS011;43755;49.736;8.734;2023-04-24T05:00:43;4.10;;;3.70;;
11447;SDS011;43755;49.736;8.734;2023-04-24T05:02:45;4.00;;;3.70;;
11447;SDS011;43755;49.736;8.734;2023-04-24T05:04:46;3.95;;;3.65;;
11447;SDS011;43755;49.736;8.734;2023-04-24T05:06:48;4.93;;;4.13;;
11447;SDS011;43755;49.736;8.734;2023-04-24T05:08:51;4.15;;;3.72;;
11447;SDS011;43755;49.736;8.734;2023-04-24T05:10:58;4.13;;;3.83;;
11447;SDS011;43755;49.736;8.734;2023-04-24T05:12:59;4.57;;;4.20;;
11447;SDS011;43755;49.736;8.734;2023-04-24T05:15:01;4.70;;;4.30;;
11447;SDS011;43755;49.736;8.734;2023-04-24T05:17:03;6.40;;;4.82;;
11447;SDS011;43755;49.736;8.734;2023-04-24T05:19:04;4.38;;;4.07;;
11447;SDS011;43755;49.736;8.734;2023-04-24T05:21:06;4.40;;;4.10;;
11447;SDS011;43755;49.736;8.734;2023-04-24T05:23:07;4.80;;;4.38;;
11447;SDS011;43755;49.736;8.734;2023-04-24T05:25:08;4.32;;;4.05;;
11447;SDS011;43755;49.736;8.734;2023-04-24T05:27:11;4.63;;;4.30;;
11447;SDS011;43755;49.736;8.734;2023-04-24T05:29:12;5.60;;;4.53;;
11447;SDS011;43755;49.736;8.734;2023-04-24T05:31:14;4.57;;;4.28;;
11447;SDS011;43755;49.736;8.734;2023-04-24T05:33:17;5.28;;;4.85;;
11447;SDS011;43755;49.736;8.734;2023-04-24T05:35:19;4.90;;;4.38;;
11447;SDS011;43755;49.736;8.734;2023-04-24T05:37:20;4.72;;;4.32;;
11447;SDS011;43755;49.736;8.734;2023-04-24T05:39:21;4.60;;;4.30;;
11447;SDS011;43755;49.736;8.734;2023-04-24T05:41:24;4.50;;;4.13;;
11447;SDS011;43755;49.736;8.734;2023-04-24T05:43:27;5.97;;;4.45;;
11447;SDS011;43755;49.736;8.734;2023-04-24T05:45:29;5.28;;;4.30;;
11447;SDS011;43755;49.736;8.734;2023-04-24T05:47:30;5.07;;;4.47;;
11447;SDS011;43755;49.736;8.734;2023-04-24T05:49:32;5.65;;;4.55;;
11447;SDS011;43755;49.736;8.734;2023-04-24T05:51:33;4.40;;;4.10;;
11447;SDS011;43755;49.736;8.734;2023-04-24T05:53:35;5.00;;;4.50;;
11447;SDS011;43755;49.736;8.734;2023-04-24T05:55:36;4.93;;;4.43;;
11447;SDS011;43755;49.736;8.734;2023-04-24T05:57:38;4.80;;;4.50;;
11447;SDS011;43755;49.736;8.734;2023-04-24T05:59:40;4.78;;;4.47;;
11447;SDS011;43755;49.736;8.734;2023-04-24T06:01:42;5.13;;;4.40;;
11447;SDS011;43755;49.736;8.734;2023-04-24T06:03:44;5.00;;;4.63;;
11447;SDS011;43755;49.736;8.734;2023-04-24T06:05:46;5.72;;;4.72;;
11447;SDS011;43755;49.736;8.734;2023-04-24T06:07:47;4.32;;;4.03;;
11447;SDS011;43755;49.736;8.734;2023-04-24T06:09:49;4.88;;;4.47;;
11447;SDS011;43755;49.736;8.734;2023-04-24T06:11:50;4.90;;;4.50;;
11447;SDS011;43755;49.736;8.734;2023-04-24T06:13:52;4.53;;;4.13;;
11447;SDS011;43755;49.736;8.734;2023-04-24T06:15:55;5.18;;;4.72;;
11447;SDS011;43755;49.736;8.734;2023-04-24T06:17:57;5.22;;;4.72;;
11447;SDS011;43755;49.736;8.734;2023-04-24T06:19:58;4.68;;;4.35;;
11447;SDS011;43755;49.736;8.734;2023-04-24T06:22:00;5.22;;;4.82;;
11447;SDS011;43755;49.736;8.734;2023-04-24T06:24:01;4.88;;;4.47;;
11447;SDS011;43755;49.736;8.734;2023-04-24T06:26:03;5.88;;;5.28;;
11447;SDS011;43755;49.736;8.734;2023-04-24T06:28:05;5.63;;;5.20;;
11447;SDS011;43755;49.736;8.734;2023-04-24T06:30:07;5.60;;;5.10;;
11447;SDS011;43755;49.736;8.734;2023-04-24T06:32:10;6.07;;;5.47;;
11447;SDS011;43755;49.736;8.734;2023-04-24T06:34:12;5.68;;;5.18;;
11447;SDS011;43755;49.736;8.734;2023-04-24T06:36:13;5.55;;;5.15;;
11447;SDS011;43755;49.736;8.734;2023-04-24T06:38:15;5.55;;;5.05;;
11447;SDS011;43755;49.736;8.734;2023-04-24T06:40:17;6.03;;;5.43;;
11447;SDS011;43755;49.736;8.734;2023-04-24T06:42:18;7.35;;;5.43;;
11447;SDS011;43755;49.736;8.734;2023-04-24T06:44:20;7.53;;;5.68;;
11447;SDS011;43755;49.736;8.734;2023-04-24T06:46:22;7.03;;;5.47;;
11447;SDS011;43755;49.736;8.734;2023-04-24T06:48:27;6.70;;;6.10;;
11447;SDS011;43755;49.736;8.734;2023-04-24T06:50:28;6.20;;;5.60;;
11447;SDS011;43755;49.736;8.734;2023-04-24T06:52:30;5.43;;;5.03;;
11447;SDS011;43755;49.736;8.734;2023-04-24T06:54:32;6.30;;;5.72;;
11447;SDS011;43755;49.736;8.734;2023-04-24T06:56:34;6.88;;;6.25;;
11447;SDS011;43755;49.736;8.734;2023-04-24T06:58:36;6.75;;;6.15;;
11447;SDS011;43755;49.736;8.734;2023-04-24T07:00:37;6.63;;;5.97;;
11447;SDS011;43755;49.736;8.734;2023-04-24T07:02:39;6.38;;;5.88;;
11447;SDS011;43755;49.736;8.734;2023-04-24T07:04:41;6.75;;;6.15;;
11447;SDS011;43755;49.736;8.734;2023-04-24T07:06:43;6.45;;;5.80;;
11447;SDS011;43755;49.736;8.734;2023-04-24T07:08:45;5.72;;;5.18;;
11447;SDS011;43755;49.736;8.734;2023-04-24T07:10:48;6.30;;;5.57;;
11447;SDS011;43755;49.736;8.734;2023-04-24T07:12:51;5.35;;;4.90;;
11447;SDS011;43755;49.736;8.734;2023-04-24T07:14:52;5.70;;;5.20;;
11447;SDS011;43755;49.736;8.734;2023-04-24T07:16:54;5.18;;;4.78;;
11447;SDS011;43755;49.736;8.734;2023-04-24T07:18:57;5.70;;;4.78;;
11447;SDS011;43755;49.736;8.734;2023-04-24T07:20:59;4.97;;;4.40;;
11447;SDS011;43755;49.736;8.734;2023-04-24T07:23:01;6.63;;;4.25;;
11447;SDS011;43755;49.736;8.734;2023-04-24T07:25:03;4.88;;;4.32;;
11447;SDS011;43755;49.736;8.734;2023-04-24T07:27:05;4.30;;;3.90;;
11447;SDS011;43755;49.736;8.734;2023-04-24T07:29:06;5.85;;;4.35;;
11447;SDS011;43755;49.736;8.734;2023-04-24T07:31:08;5.78;;;3.80;;
11447;SDS011;43755;49.736;8.734;2023-04-24T07:33:10;4.05;;;3.75;;
11447;SDS011;43755;49.736;8.734;2023-04-24T07:35:13;4.05;;;3.63;;
11447;SDS011;43755;49.736;8.734;2023-04-24T07:37:15;4.65;;;3.63;;
11447;SDS011;43755;49.736;8.734;2023-04-24T07:39:17;3.72;;;3.30;;
11447;SDS011;43755;49.736;8.734;2023-04-24T07:41:19;3.75;;;3.45;;
11447;SDS011;43755;49.736;8.734;2023-04-24T07:43:21;5.07;;;3.47;;
11447;SDS011;43755;49.736;8.734;2023-04-24T07:45:23;3.50;;;3.22;;
11447;SDS011;43755;49.736;8.734;2023-04-24T07:47:26;3.50;;;3.20;;
11447;SDS011;43755;49.736;8.734;2023-04-24T07:49:27;3.30;;;3.00;;
11447;SDS011;43755;49.736;8.734;2023-04-24T07:51:28;3.58;;;3.25;;
11447;SDS011;43755;49.736;8.734;2023-04-24T07:53:31;4.15;;;3.20;;
11447;SDS011;43755;49.736;8.734;2023-04-24T07:55:33;3.50;;;3.25;;
11447;SDS011;43755;49.736;8.734;2023-04-24T07:57:34;3.30;;;3.10;;
11447;SDS011;43755;49.736;8.734;2023-04-24T07:59:36;3.60;;;3.20;;
11447;SDS011;43755;49.736;8.734;2023-04-24T08:01:37;3.55;;;3.22;;
11447;SDS011;43755;49.736;8.734;2023-04-24T08:03:38;3.50;;;3.20;;
11447;SDS011;43755;49.736;8.734;2023-04-24T08:05:40;3.40;;;3.10;;
11447;SDS011;43755;49.736;8.734;2023-04-24T08:07:42;3.55;;;3.25;;
11447;SDS011;43755;49.736;8.734;2023-04-24T08:09:47;2.90;;;2.70;;
11447;SDS011;43755;49.736;8.734;2023-04-24T08:11:48;3.40;;;3.10;;
11447;SDS011;43755;49.736;8.734;2023-04-24T08:13:50;4.78;;;3.30;;
11447;SDS011;43755;49.736;8.734;2023-04-24T08:15:54;4.05;;;3.13;;
11447;SDS011;43755;49.736;8.734;2023-04-24T08:17:57;3.55;;;3.35;;
11447;SDS011;43755;49.736;8.734;2023-04-24T08:19:59;3.60;;;3.13;;
11447;SDS011;43755;49.736;8.734;2023-04-24T08:22:01;2.83;;;2.67;;
11447;SDS011;43755;49.736;8.734;2023-04-24T08:24:04;2.92;;;2.50;;
11447;SDS011;43755;49.736;8.734;2023-04-24T08:26:09;2.63;;;2.42;;
11447;SDS011;43755;49.736;8.734;2023-04-24T08:28:11;2.55;;;2.35;;
11447;SDS011;43755;49.736;8.734;2023-04-24T08:30:12;3.92;;;2.30;;
11447;SDS011;43755;49.736;8.734;2023-04-24T08:32:14;2.72;;;2.55;;
11447;SDS011;43755;49.736;8.734;2023-04-24T08:34:15;2.85;;;2.50;;
11447;SDS011;43755;49.736;8.734;2023-04-24T08:36:16;2.50;;;2.40;;
11447;SDS011;43755;49.736;8.734;2023-04-24T08:38:18;2.72;;;2.53;;
11447;SDS011;43755;49.736;8.734;2023-04-24T08:40:21;2.78;;;2.60;;
11447;SDS011;43755;49.736;8.734;2023-04-24T08:42:29;2.80;;;2.65;;
11447;SDS011;43755;49.736;8.734;2023-04-24T08:44:33;3.28;;;2.70;;
11447;SDS011;43755;49.736;8.734;2023-04-24T08:46:36;2.90;;;2.70;;
11447;SDS011;43755;49.736;8.734;2023-04-24T08:48:38;3.47;;;2.70;;
11447;SDS011;43755;49.736;8.734;2023-04-24T08:50:40;3.13;;;2.83;;
11447;SDS011;43755;49.736;8.734;2023-04-24T08:52:44;3.10;;;2.90;;
11447;SDS011;43755;49.736;8.734;2023-04-24T08:54:46;5.38;;;3.15;;
11447;SDS011;43755;49.736;8.734;2023-04-24T08:56:48;2.92;;;2.63;;
11447;SDS011;43755;49.736;8.734;2023-04-24T08:58:51;4.10;;;2.72;;
11447;SDS011;43755;49.736;8.734;2023-04-24T09:00:54;3.63;;;2.92;;
11447;SDS011;43755;49.736;8.734;2023-04-24T09:02:56;3.30;;;2.97;;
11447;SDS011;43755;49.736;8.734;2023-04-24T09:04:58;2.95;;;2.75;;
11447;SDS011;43755;49.736;8.734;2023-04-24T09:07:00;2.88;;;2.50;;
11447;SDS011;43755;49.736;8.734;2023-04-24T09:09:02;2.80;;;2.70;;
11447;SDS011;43755;49.736;8.734;2023-04-24T09:11:04;2.78;;;2.58;;
11447;SDS011;43755;49.736;8.734;2023-04-24T09:13:05;3.22;;;2.95;;
11447;SDS011;43755;49.736;8.734;2023-04-24T09:15:10;2.90;;;2.60;;
11447;SDS011;43755;49.736;8.734;2023-04-24T09:17:12;3.10;;;2.80;;
11447;SDS011;43755;49.736;8.734;2023-04-24T09:19:14;2.40;;;2.30;;
11447;SDS011;43755;49.736;8.734;2023-04-24T09:21:15;2.70;;;2.60;;
11447;SDS011;43755;49.736;8.734;2023-04-24T09:23:17;2.90;;;2.70;;
11447;SDS011;43755;49.736;8.734;2023-04-24T09:25:18;3.17;;;2.97;;
11447;SDS011;43755;49.736;8.734;2023-04-24T09:27:22;3.45;;;3.15;;
11447;SDS011;43755;49.736;8.734;2023-04-24T09:29:24;3.60;;;3.30;;
11447;SDS011;43755;49.736;8.734;2023-04-24T09:31:28;3.78;;;3.10;;
11447;SDS011;43755;49.736;8.734;2023-04-24T09:33:30;3.33;;;3.10;;
11447;SDS011;43755;49.736;8.734;2023-04-24T09:35:31;4.80;;;3.30;;
11447;SDS011;43755;49.736;8.734;2023-04-24T09:37:35;3.72;;;3.42;;
11447;SDS011;43755;49.736;8.734;2023-04-24T09:39:37;3.80;;;3.50;;
11447;SDS011;43755;49.736;8.734;2023-04-24T09:41:43;3.83;;;3.53;;
11447;SDS011;43755;49.736;8.734;2023-04-24T09:43:45;3.63;;;3.33;;
11447;SDS011;43755;49.736;8.734;2023-04-24T09:45:46;3.35;;;3.05;;
11447;SDS011;43755;49.736;8.734;2023-04-24T09:47:52;3.47;;;3.17;;
11447;SDS011;43755;49.736;8.734;2023-04-24T09:49:57;3.38;;;3.08;;
11447;SDS011;43755;49.736;8.734;2023-04-24T09:52:02;3.40;;;3.10;;
11447;SDS011;43755;49.736;8.734;2023-04-24T09:54:04;2.92;;;2.72;;
11447;SDS011;43755;49.736;8.734;2023-04-24T09:56:13;3.10;;;2.90;;
11447;SDS011;43755;49.736;8.734;2023-04-24T09:58:15;3.20;;;3.00;;
11447;SDS011;43755;49.736;8.734;2023-04-24T10:00:23;3.58;;;3.28;;
11447;SDS011;43755;49.736;8.734;2023-04-24T10:02:25;3.70;;;3.40;;
11447;SDS011;43755;49.736;8.734;2023-04-24T10:04:28;3.50;;;3.30;;
11447;SDS011;43755;49.736;8.734;2023-04-24T10:06:31;3.50;;;3.20;;
11447;SDS011;43755;49.736;8.734;2023-04-24T10:08:34;4.65;;;3.78;;
11447;SDS011;43755;49.736;8.734;2023-04-24T10:10:38;3.35;;;3.10;;
11447;SDS011;43755;49.736;8.734;2023-04-24T10:12:41;3.83;;;3.53;;
11447;SDS011;43755;49.736;8.734;2023-04-24T10:14:44;3.03;;;2.83;;
11447;SDS011;43755;49.736;8.734;2023-04-24T10:16:47;3.33;;;3.13;;
11447;SDS011;43755;49.736;8.734;2023-04-24T10:18:49;3.17;;;2.97;;
11447;SDS011;43755;49.736;8.734;2023-04-24T10:20:52;2.75;;;2.58;;
11447;SDS011;43755;49.736;8.734;2023-04-24T10:22:55;2.95;;;2.72;;
11447;SDS011;43755;49.736;8.734;2023-04-24T10:24:58;2.97;;;2.60;;
11447;SDS011;43755;49.736;8.734;2023-04-24T10:27:00;5.18;;;2.53;;
11447;SDS011;43755;49.736;8.734;2023-04-24T10:29:03;2.70;;;2.50;;
11447;SDS011;43755;49.736;8.734;2023-04-24T10:31:09;2.40;;;2.20;;
11447;SDS011;43755;49.736;8.734;2023-04-24T10:33:12;2.70;;;2.50;;
11447;SDS011;43755;49.736;8.734;2023-04-24T10:35:15;2.70;;;2.50;;
11447;SDS011;43755;49.736;8.734;2023-04-24T10:37:20;2.40;;;2.30;;
11447;SDS011;43755;49.736;8.734;2023-04-24T10:39:22;2.50;;;2.40;;
11447;SDS011;43755;49.736;8.734;2023-04-24T10:41:24;2.38;;;2.20;;
11447;SDS011;43755;49.736;8.734;2023-04-24T10:43:27;2.72;;;2.50;;
11447;SDS011;43755;49.736;8.734;2023-04-24T10:45:28;2.30;;;2.10;;
11447;SDS011;43755;49.736;8.734;2023-04-24T10:47:30;4.00;;;2.50;;
11447;SDS011;43755;49.736;8.734;2023-04-24T10:49:40;2.75;;;2.50;;
11447;SDS011;43755;49.736;8.734;2023-04-24T10:51:44;2.67;;;2.47;;
11447;SDS011;43755;49.736;8.734;2023-04-24T10:53:48;3.00;;;2.70;;
11447;SDS011;43755;49.736;8.734;2023-04-24T10:55:51;3.05;;;2.47;;
11447;SDS011;43755;49.736;8.734;2023-04-24T11:00:13;2.80;;;2.40;;
11447;SDS011;43755;49.736;8.734;2023-04-24T11:02:20;2.70;;;2.50;;
11447;SDS011;43755;49.736;8.734;2023-04-24T11:04:37;2.85;;;2.42;;
11447;SDS011;43755;49.736;8.734;2023-04-24T11:06:38;2.20;;;2.10;;
11447;SDS011;43755;49.736;8.734;2023-04-24T11:08:43;4.18;;;2.22;;
11447;SDS011;43755;49.736;8.734;2023-04-24T11:10:47;2.42;;;2.22;;
11447;SDS011;43755;49.736;8.734;2023-04-24T11:12:56;2.63;;;2.40;;
11447;SDS011;43755;49.736;8.734;2023-04-24T11:14:59;2.50;;;2.30;;
11447;SDS011;43755;49.736;8.734;2023-04-24T11:17:02;2.72;;;2.45;;
11447;SDS011;43755;49.736;8.734;2023-04-24T11:19:04;2.63;;;2.20;;
11447;SDS011;43755;49.736;8.734;2023-04-24T11:21:10;2.60;;;2.40;;
11447;SDS011;43755;49.736;8.734;2023-04-24T11:23:12;2.60;;;2.40;;
11447;SDS011;43755;49.736;8.734;2023-04-24T11:25:14;3.45;;;2.90;;
11447;SDS011;43755;49.736;8.734;2023-04-24T11:27:18;2.83;;;2.63;;
11447;SDS011;43755;49.736;8.734;2023-04-24T11:29:20;2.63;;;2.42;;
11447;SDS011;43755;49.736;8.734;2023-04-24T11:31:35;2.80;;;2.53;;
11447;SDS011;43755;49.736;8.734;2023-04-24T11:33:37;2.90;;;2.70;;
11447;SDS011;43755;49.736;8.734;2023-04-24T11:35:39;3.03;;;2.75;;
11447;SDS011;43755;49.736;8.734;2023-04-24T11:37:42;3.60;;;2.90;;
11447;SDS011;43755;49.736;8.734;2023-04-24T11:39:45;2.60;;;2.40;;
11447;SDS011;43755;49.736;8.734;2023-04-24T11:41:47;2.80;;;2.60;;
11447;SDS011;43755;49.736;8.734;2023-04-24T11:43:50;2.58;;;2.40;;
11447;SDS011;43755;49.736;8.734;2023-04-24T11:45:53;2.47;;;2.33;;
11447;SDS011;43755;49.736;8.734;2023-04-24T11:47:55;2.67;;;2.47;;
11447;SDS011;43755;49.736;8.734;2023-04-24T11:49:57;3.55;;;2.97;;
11447;SDS011;43755;49.736;8.734;2023-04-24T11:51:59;3.38;;;2.92;;
11447;SDS011;43755;49.736;8.734;2023-04-24T11:54:01;3.30;;;3.10;;
11447;SDS011;43755;49.736;8.734;2023-04-24T11:56:02;3.30;;;3.00;;
11447;SDS011;43755;49.736;8.734;2023-04-24T11:58:05;3.38;;;2.92;;
11447;SDS011;43755;49.736;8.734;2023-04-24T12:00:14;3.40;;;3.03;;
11447;SDS011;43755;49.736;8.734;2023-04-24T12:02:20;4.47;;;3.13;;
11447;SDS011;43755;49.736;8.734;2023-04-24T12:04:22;3.13;;;2.80;;
11447;SDS011;43755;49.736;8.734;2023-04-24T12:06:24;3.75;;;3.35;;
11447;SDS011;43755;49.736;8.734;2023-04-24T12:08:28;3.42;;;3.20;;
11447;SDS011;43755;49.736;8.734;2023-04-24T12:10:30;4.53;;;3.22;;
11447;SDS011;43755;49.736;8.734;2023-04-24T12:12:33;3.70;;;3.40;;
11447;SDS011;43755;49.736;8.734;2023-04-24T12:14:41;4.43;;;3.17;;
11447;SDS011;43755;49.736;8.734;2023-04-24T12:16:48;3.95;;;3.65;;
11447;SDS011;43755;49.736;8.734;2023-04-24T12:18:50;4.85;;;3.40;;
11447;SDS011;43755;49.736;8.734;2023-04-24T12:20:52;4.68;;;3.88;;